Hlavní strana
METAR-TAF:

METAR-TAF

Letiště :

Funchal, Madeira, Portugalsko

Letiště Madeira

zeměpisná šířka: 32-41-52N, zeměpisná délka: 016-46-28W, výška: 59 m

Aktuální stav počasí

Zpráva byla vytvořena před 17 minutami, v 22:00 UTC
Severní vítr 14 kt s nárazy do 24 kt, proměnlivý mezi severoseverozápadním a severovýchodním
Teplota 16°C
Vlhkost vzduchu 77%
Tlak 1024 hPa
Viditelnost 10 km a více
Polojasno ve výšce 1400 ft

METAR: LPMA 252200Z 01014G24KT 330V040 9999 SCT014 16/12 Q1024

Čas: 23:17 (22:17 UTC)

Předpověď počasí

Zpráva byla vytvořena před 5 hodinami a 17 minutami, v 17:00 UTC
Předpověď platná od 25 v 18 UTC do 26 v 18 UTC
Severní vítr 10 kt
Viditelnost 10 km a více
Polojasno ve výšce 1500 ft
Polojasno ve výšce 3000 ft
Dočasný
od 25 v 18 UTC do 25 v 24 UTC
Severní vítr 18 kt s nárazy do 28 kt
Oblačno až skoro zataženo ve výšce 1500 ft

TAF: LPMA 251700Z 2518/2618 36010KT 9999 SCT015 SCT030 TEMPO 2518/2524 01018G28KT BKN015

Stav a předpovědi počasí z více než 4 000 letišť (zprávy METAR a TAF).

Červené a žluté tečky na mapě představují dostupné meteorologické stanice.

Když kurzor umístíte na tečku, zobrazí se název stanice.

Pak kliknutím zobrazíte stav a předpověď počasí.

Chcete-li změnit mapu, kliknutím na zelené tlačítko se znaménkem +mapu přiblížíte, kliknutím na zelené tlačítko se znaménkem – mapu oddálíte a kliknutím na zelené šipky přejdete na sousední mapy.


METAR-TAF: